Time;durP1;ratioP1;P1;durP2;ratioP2;P2;SDS_P1;SDS_P2;PMS_P1;PMS_P2;Temp;Humidity;BMP_temperature;BMP_pressure;BME280_temperature;BME280_humidity;BME280_pressure;Samples;Min_cycle;Max_cycle;Signal;HPM_P1;HPM_P2
2023/03/15 00:02:03;;;;;;;12.67;7.80;;;9.10;99.90;;;;;;4774159;30;20678;-84
2023/03/15 00:04:31;;;;;;;13.10;6.90;;;9.10;99.90;;;;;;4777037;30;20234;-82
2023/03/15 00:06:59;;;;;;;12.43;7.07;;;9.20;99.90;;;;;;4774057;30;20204;-86
2023/03/15 00:09:26;;;;;;;13.97;7.40;;;9.20;99.90;;;;;;4788346;30;20634;-90
2023/03/15 00:11:53;;;;;;;13.57;8.13;;;9.10;99.90;;;;;;4788552;30;20212;-81
2023/03/15 00:14:20;;;;;;;12.90;7.33;;;9.20;99.90;;;;;;4772025;30;20524;-82
2023/03/15 00:16:48;;;;;;;13.80;7.73;;;9.20;99.90;;;;;;4780290;30;20208;-93
2023/03/15 00:19:14;;;;;;;15.07;7.13;;;9.30;99.90;;;;;;4772104;30;20219;-81
2023/03/15 00:21:43;;;;;;;12.70;7.30;;;9.30;99.90;;;;;;4771502;29;20208;-82
2023/03/15 00:24:10;;;;;;;12.90;7.30;;;9.30;99.90;;;;;;4770856;30;20281;-82
2023/03/15 00:26:37;;;;;;;14.20;7.30;;;9.30;99.90;;;;;;4788472;30;20204;-84
2023/03/15 00:29:04;;;;;;;11.53;7.43;;;9.30;99.90;;;;;;4772059;30;20208;-86
2023/03/15 00:31:31;;;;;;;13.93;7.87;;;9.30;99.90;;;;;;4771864;30;20211;-83
2023/03/15 00:33:59;;;;;;;13.70;6.97;;;9.30;99.90;;;;;;4773134;30;20208;-86
2023/03/15 00:36:26;;;;;;;13.23;7.70;;;9.30;99.90;;;;;;4788678;30;20232;-81
2023/03/15 00:38:55;;;;;;;13.63;7.40;;;9.30;99.90;;;;;;4774613;30;20212;-90
2023/03/15 00:41:23;;;;;;;11.53;7.13;;;9.40;99.90;;;;;;4771214;30;20240;-81
2023/03/15 00:43:50;;;;;;;12.43;7.80;;;9.40;99.90;;;;;;4772275;30;20242;-89
2023/03/15 00:46:18;;;;;;;12.63;7.40;;;9.40;99.90;;;;;;4771312;30;20620;-79
2023/03/15 00:48:50;;;;;;;9.83;7.03;;;9.30;99.90;;;;;;4773630;30;20230;-87
2023/03/15 00:51:21;;;;;;;7.30;5.80;;;9.00;99.90;;;;;;4774709;30;20298;-83
2023/03/15 00:53:49;;;;;;;8.10;4.87;;;8.70;99.90;;;;;;4772245;30;20218;-83
2023/03/15 00:56:22;;;;;;;5.63;4.10;;;8.40;99.90;;;;;;4787759;30;20222;-84
2023/03/15 00:58:51;;;;;;;4.90;3.60;;;8.00;99.90;;;;;;4770870;30;20200;-80
2023/03/15 01:01:24;;;;;;;4.33;3.00;;;7.70;99.90;;;;;;4782705;30;20257;-78
2023/03/15 01:03:51;;;;;;;2.53;1.80;;;7.40;99.90;;;;;;4786973;30;20223;-78
2023/03/15 01:06:21;;;;;;;1.87;1.40;;;6.80;99.90;;;;;;4785668;30;20304;-81
2023/03/15 01:08:51;;;;;;;4.03;1.30;;;6.60;99.90;;;;;;4787038;30;20235;-80
2023/03/15 01:11:23;;;;;;;2.00;1.10;;;6.20;99.90;;;;;;4787006;30;20196;-80
2023/03/15 01:13:55;;;;;;;1.20;1.00;;;5.80;99.90;;;;;;4787049;30;20213;-79
2023/03/15 01:16:22;;;;;;;1.63;1.10;;;5.40;99.90;;;;;;4785512;30;20205;-79
2023/03/15 01:18:52;;;;;;;1.70;1.20;;;5.30;99.90;;;;;;4785708;30;20682;-80
2023/03/15 01:21:21;;;;;;;3.67;1.60;;;5.00;99.90;;;;;;4785555;30;20324;-77
2023/03/15 01:23:48;;;;;;;2.00;1.20;;;4.70;99.90;;;;;;4785606;30;20349;-84
2023/03/15 01:26:16;;;;;;;1.30;1.10;;;4.50;99.90;;;;;;4785395;30;20253;-79
2023/03/15 01:28:43;;;;;;;1.57;1.20;;;4.30;99.90;;;;;;4785357;30;20223;-79
2023/03/15 01:31:20;;;;;;;2.27;1.60;;;4.00;99.90;;;;;;4785695;30;20242;-80
2023/03/15 01:33:47;;;;;;;1.47;1.37;;;4.00;99.90;;;;;;4785099;29;20263;-79
2023/03/15 01:36:14;;;;;;;3.57;1.50;;;3.80;99.90;;;;;;4785443;30;20222;-80
2023/03/15 01:38:42;;;;;;;2.63;1.57;;;3.70;99.90;;;;;;4785188;30;20315;-80
2023/03/15 01:41:11;;;;;;;2.53;1.70;;;3.70;99.90;;;;;;4785273;30;20310;-81
2023/03/15 01:43:38;;;;;;;2.73;1.70;;;3.60;99.90;;;;;;4785248;30;20681;-83
2023/03/15 01:46:14;;;;;;;3.33;1.60;;;3.60;99.90;;;;;;4784784;30;20594;-81
2023/03/15 01:49:05;;;;;;;3.93;1.80;;;3.50;99.90;;;;;;4786573;30;20186;-81
2023/03/15 01:51:45;;;;;;;2.40;1.73;;;3.50;99.90;;;;;;4785223;30;20290;-82
2023/03/15 01:54:19;;;;;;;3.87;1.70;;;3.50;99.90;;;;;;4785122;30;20217;-81
2023/03/15 01:56:58;;;;;;;5.77;1.63;;;3.60;99.90;;;;;;4786805;30;20209;-82
2023/03/15 01:59:40;;;;;;;3.13;1.70;;;3.50;99.90;;;;;;4786272;29;20199;-80
2023/03/15 02:02:07;;;;;;;2.27;1.60;;;3.60;99.90;;;;;;4786405;30;20208;-80
2023/03/15 02:04:39;;;;;;;1.80;1.40;;;3.40;99.90;;;;;;4770232;30;20214;-81
2023/03/15 02:07:07;;;;;;;4.07;1.73;;;3.50;99.90;;;;;;4786227;30;20188;-81
2023/03/15 02:09:43;;;;;;;2.53;1.50;;;3.50;99.90;;;;;;4769722;30;20296;-80
2023/03/15 02:12:10;;;;;;;4.47;1.50;;;3.40;99.90;;;;;;4770126;30;20266;-80
2023/03/15 02:14:38;;;;;;;2.80;1.43;;;3.50;99.90;;;;;;4769790;30;20219;-85
2023/03/15 02:17:05;;;;;;;3.30;1.60;;;3.40;99.90;;;;;;4770706;30;20567;-82
2023/03/15 02:19:56;;;;;;;3.03;1.47;;;3.40;99.90;;;;;;4786174;30;20196;-81
2023/03/15 02:22:47;;;;;;;2.27;1.40;;;3.50;99.90;;;;;;4786320;30;20541;-77
2023/03/15 02:25:23;;;;;;;1.63;1.40;;;3.60;99.90;;;;;;4769630;30;20233;-80
2023/03/15 02:27:50;;;;;;;2.60;1.50;;;3.60;99.90;;;;;;4770946;30;20668;-82
2023/03/15 02:30:17;;;;;;;1.80;1.23;;;3.60;99.90;;;;;;4770715;30;20212;-81
2023/03/15 02:32:45;;;;;;;1.93;1.40;;;3.60;99.90;;;;;;4770591;30;20209;-82
2023/03/15 02:35:12;;;;;;;2.10;1.33;;;3.60;99.90;;;;;;4770082;30;20292;-80
2023/03/15 02:37:44;;;;;;;2.67;1.30;;;3.60;99.90;;;;;;4770181;30;20309;-83
2023/03/15 02:40:19;;;;;;;2.67;1.20;;;3.50;99.90;;;;;;4769809;30;20567;-80
2023/03/15 02:42:50;;;;;;;3.73;1.53;;;3.50;99.90;;;;;;4786086;30;20665;-80
2023/03/15 02:45:17;;;;;;;2.70;1.60;;;3.60;99.90;;;;;;4769933;30;20691;-80
2023/03/15 02:47:45;;;;;;;2.23;1.30;;;3.60;99.90;;;;;;4773334;30;20666;-79
2023/03/15 02:50:12;;;;;;;2.97;1.30;;;3.70;99.90;;;;;;4773290;30;20751;-85
2023/03/15 02:52:40;;;;;;;3.77;1.23;;;3.60;99.90;;;;;;4789237;30;20211;-81
2023/03/15 02:55:07;;;;;;;3.73;1.10;;;3.60;99.90;;;;;;4773208;30;20667;-79
2023/03/15 02:57:34;;;;;;;2.83;1.17;;;3.60;99.90;;;;;;4773029;30;20300;-84
2023/03/15 03:00:12;;;;;;;2.07;1.17;;;3.60;99.90;;;;;;4778818;29;20238;-83
2023/03/15 03:02:45;;;;;;;3.03;1.50;;;3.60;99.90;;;;;;4791070;29;20218;-80
2023/03/15 03:05:13;;;;;;;3.60;1.40;;;3.60;99.90;;;;;;4790668;29;20372;-80
2023/03/15 03:07:41;;;;;;;5.40;1.20;;;3.70;99.90;;;;;;4807477;29;20204;-81
2023/03/15 03:10:10;;;;;;;5.50;1.47;;;3.70;99.90;;;;;;4790611;29;20333;-82
2023/03/15 03:12:37;;;;;;;2.80;1.63;;;3.70;99.90;;;;;;4790668;29;20206;-80
2023/03/15 03:15:05;;;;;;;4.60;1.30;;;3.70;99.90;;;;;;4807246;29;20214;-79
2023/03/15 03:17:36;;;;;;;6.67;1.60;;;3.70;99.90;;;;;;4790517;29;20440;-82
2023/03/15 03:20:08;;;;;;;3.47;1.30;;;3.70;99.90;;;;;;4790832;29;20276;-81
2023/03/15 03:22:36;;;;;;;3.27;1.30;;;3.70;99.90;;;;;;4806674;29;20199;-82
2023/03/15 03:25:05;;;;;;;5.87;1.47;;;3.80;99.90;;;;;;4806767;29;20315;-80
2023/03/15 03:27:36;;;;;;;4.50;1.40;;;3.80;99.90;;;;;;4790595;29;20215;-84
2023/03/15 03:30:09;;;;;;;4.33;1.50;;;3.80;99.90;;;;;;4790347;29;20204;-82
2023/03/15 03:32:36;;;;;;;2.50;1.33;;;3.80;99.90;;;;;;4807219;29;20278;-83
2023/03/15 03:35:03;;;;;;;4.53;1.50;;;3.70;99.90;;;;;;4790284;29;20717;-80
2023/03/15 03:37:30;;;;;;;4.77;1.47;;;3.70;99.90;;;;;;4790687;29;20244;-81
2023/03/15 03:39:57;;;;;;;5.10;1.40;;;3.70;99.90;;;;;;4806416;29;20196;-79
2023/03/15 03:42:24;;;;;;;4.43;1.60;;;3.70;99.90;;;;;;4790306;29;20219;-80
2023/03/15 03:44:53;;;;;;;5.13;1.50;;;3.60;99.90;;;;;;4790668;29;20233;-80
2023/03/15 03:47:20;;;;;;;3.43;1.60;;;3.70;99.90;;;;;;4790364;29;20575;-79
2023/03/15 03:49:50;;;;;;;5.47;2.00;;;3.80;99.90;;;;;;4806870;29;20231;-83
2023/03/15 03:52:17;;;;;;;6.10;1.83;;;3.70;99.90;;;;;;4806460;29;20193;-80
2023/03/15 03:54:44;;;;;;;4.47;1.93;;;3.80;99.90;;;;;;4806733;29;20270;-81
2023/03/15 03:57:11;;;;;;;3.30;1.80;;;3.90;99.90;;;;;;4806553;29;20215;-80
2023/03/15 03:59:37;;;;;;;5.60;2.47;;;3.90;99.90;;;;;;4789922;29;20341;-81
2023/03/15 04:02:04;;;;;;;5.07;2.10;;;3.90;99.90;;;;;;4790122;29;20204;-80
2023/03/15 04:04:31;;;;;;;4.37;2.07;;;4.00;99.90;;;;;;4774938;29;20229;-87
2023/03/15 04:06:59;;;;;;;5.23;2.57;;;3.80;99.90;;;;;;4789726;29;20234;-82
2023/03/15 04:09:26;;;;;;;6.00;2.67;;;3.80;99.90;;;;;;4805929;29;20222;-82
2023/03/15 04:11:52;;;;;;;5.50;2.90;;;3.90;99.90;;;;;;4806370;29;20690;-80
2023/03/15 04:14:19;;;;;;;4.23;2.73;;;4.00;99.90;;;;;;4805894;29;20565;-83
2023/03/15 04:16:46;;;;;;;4.83;2.67;;;3.70;99.90;;;;;;4806000;29;20216;-83
2023/03/15 04:19:13;;;;;;;5.20;2.90;;;3.70;99.90;;;;;;4789514;29;20736;-84
2023/03/15 04:21:46;;;;;;;6.03;3.10;;;3.80;99.90;;;;;;4789538;29;20303;-83
2023/03/15 04:24:13;;;;;;;5.80;2.90;;;3.80;99.90;;;;;;4774579;29;20210;-83
2023/03/15 04:26:40;;;;;;;6.57;2.87;;;3.70;99.90;;;;;;4789448;29;20221;-81
2023/03/15 04:29:10;;;;;;;7.47;3.17;;;3.70;99.90;;;;;;4789781;29;20291;-80
2023/03/15 04:31:37;;;;;;;7.47;3.20;;;3.80;99.90;;;;;;4789806;29;20217;-81
2023/03/15 04:34:07;;;;;;;7.70;3.10;;;3.70;99.90;;;;;;4805921;29;20205;-85
2023/03/15 04:36:34;;;;;;;5.67;3.10;;;3.80;99.90;;;;;;4789515;29;20230;-88
2023/03/15 04:39:04;;;;;;;8.50;3.17;;;3.80;99.90;;;;;;4791708;29;20266;-87
2023/03/15 04:41:35;;;;;;;8.07;3.30;;;3.90;99.90;;;;;;4794201;29;20689;-87
2023/03/15 04:44:03;;;;;;;6.13;2.80;;;3.70;99.90;;;;;;4789863;29;20196;-82
2023/03/15 04:46:32;;;;;;;8.77;3.40;;;3.70;99.90;;;;;;4789730;29;20235;-89
2023/03/15 04:49:00;;;;;;;8.90;3.23;;;3.70;99.90;;;;;;4789244;29;20248;-82
2023/03/15 04:51:27;;;;;;;7.70;3.30;;;3.60;99.90;;;;;;4805522;29;20695;-81
2023/03/15 04:53:54;;;;;;;7.70;3.40;;;3.70;99.90;;;;;;4789123;29;20250;-86
2023/03/15 04:56:21;;;;;;;8.53;3.70;;;3.70;99.90;;;;;;4789147;29;20230;-86
2023/03/15 04:58:48;;;;;;;6.90;3.40;;;3.70;99.90;;;;;;4788880;29;20613;-81
2023/03/15 05:01:15;;;;;;;7.67;3.67;;;3.60;99.90;;;;;;4788575;29;20710;-82
2023/03/15 05:03:42;;;;;;;7.27;3.43;;;3.70;99.90;;;;;;4805261;29;20201;-82
2023/03/15 05:06:09;;;;;;;6.20;3.47;;;3.60;99.90;;;;;;4800300;29;20227;-80
2023/03/15 05:08:36;;;;;;;7.50;3.13;;;3.60;99.90;;;;;;4797322;29;20706;-84
2023/03/15 05:11:04;;;;;;;6.23;3.20;;;3.60;99.90;;;;;;4806188;29;20203;-80
2023/03/15 05:13:31;;;;;;;8.73;3.30;;;3.60;99.90;;;;;;4803756;29;20652;-83
2023/03/15 05:15:58;;;;;;;14.07;3.60;;;3.60;99.90;;;;;;4804888;29;20702;-83
2023/03/15 05:18:25;;;;;;;10.63;3.37;;;3.70;99.90;;;;;;4789178;29;20203;-85
2023/03/15 05:20:54;;;;;;;5.67;2.93;;;3.70;99.90;;;;;;4803707;29;20217;-85
2023/03/15 05:23:22;;;;;;;6.07;3.50;;;3.80;99.90;;;;;;4804901;29;20192;-84
2023/03/15 05:25:52;;;;;;;7.43;3.87;;;4.00;99.90;;;;;;4804847;29;20704;-84
2023/03/15 05:28:24;;;;;;;7.43;4.37;;;3.80;99.90;;;;;;4803904;29;20212;-82
2023/03/15 05:30:52;;;;;;;10.63;4.53;;;4.00;99.90;;;;;;4803474;29;20200;-83
2023/03/15 05:33:19;;;;;;;8.47;4.80;;;3.70;99.90;;;;;;4804546;29;20216;-83
2023/03/15 05:35:47;;;;;;;12.20;4.80;;;3.90;99.90;;;;;;4804755;29;20212;-84
2023/03/15 05:38:14;;;;;;;10.07;5.03;;;3.70;99.90;;;;;;4803845;29;20266;-83
2023/03/15 05:40:45;;;;;;;9.63;4.60;;;3.70;99.90;;;;;;4804360;29;20195;-83
2023/03/15 05:43:12;;;;;;;9.30;4.47;;;3.90;99.90;;;;;;4803489;29;20240;-84
2023/03/15 05:45:39;;;;;;;9.93;4.97;;;3.80;99.90;;;;;;4803193;29;20255;-82
2023/03/15 05:48:07;;;;;;;10.50;4.50;;;3.70;99.90;;;;;;4803806;29;20200;-86
2023/03/15 05:50:34;;;;;;;9.47;4.60;;;3.80;99.90;;;;;;4788951;29;20689;-87
2023/03/15 05:53:00;;;;;;;8.53;4.50;;;3.90;99.90;;;;;;4803662;29;20207;-86
2023/03/15 05:55:27;;;;;;;8.40;4.70;;;3.90;99.90;;;;;;4804975;29;20287;-82
2023/03/15 05:57:54;;;;;;;7.93;4.20;;;3.60;99.90;;;;;;4804847;29;20518;-80
2023/03/15 06:00:21;;;;;;;13.27;4.97;;;3.90;99.90;;;;;;4802539;29;20245;-81
2023/03/15 06:02:48;;;;;;;12.13;4.67;;;3.80;99.90;;;;;;4770610;30;20206;-81
2023/03/15 06:05:15;;;;;;;12.43;5.23;;;3.70;99.90;;;;;;4770262;30;20604;-81
2023/03/15 06:07:45;;;;;;;10.53;5.07;;;3.80;99.90;;;;;;4770528;30;20669;-84
2023/03/15 06:10:12;;;;;;;9.93;4.83;;;3.70;99.90;;;;;;4770313;30;20236;-82
2023/03/15 06:12:40;;;;;;;9.23;4.37;;;3.80;99.90;;;;;;4786230;30;20201;-83
2023/03/15 06:15:07;;;;;;;12.77;5.20;;;4.00;99.90;;;;;;4770201;30;20309;-83
2023/03/15 06:26:06;;;;;;;9.63;4.60;;;3.70;99.90;;;;;;4811934;24;20652;-84
2023/03/15 06:28:33;;;;;;;13.20;4.90;;;3.90;99.90;;;;;;4793639;29;20312;-88
2023/03/15 06:31:10;;;;;;;12.17;4.93;;;3.80;99.90;;;;;;4809076;29;20197;-85
2023/03/15 06:33:39;;;;;;;9.90;4.47;;;3.90;99.90;;;;;;4799812;29;20296;-82
2023/03/15 06:36:06;;;;;;;11.23;4.63;;;3.90;99.90;;;;;;4798947;29;20222;-84
2023/03/15 06:46:39;;;;;;;12.20;5.03;;;3.90;99.90;;;;;;5412578;24;20224;-82
2023/03/15 06:49:06;;;;;;;10.10;4.90;;;4.10;99.90;;;;;;4802466;29;20199;-81
2023/03/15 06:51:33;;;;;;;13.27;5.00;;;4.10;99.90;;;;;;4791546;29;20218;-81
2023/03/15 06:54:03;;;;;;;15.57;5.03;;;4.20;99.90;;;;;;4807344;29;20217;-83
2023/03/15 06:59:00;;;;;;;12.57;5.77;;;4.30;99.90;;;;;;4731847;30;20215;-83
2023/03/15 07:01:27;;;;;;;13.40;5.47;;;4.30;99.90;;;;;;4770233;30;20211;-82
2023/03/15 07:03:54;;;;;;;10.57;5.47;;;4.30;99.90;;;;;;4770530;30;20207;-82
2023/03/15 07:06:21;;;;;;;10.47;4.93;;;4.40;99.90;;;;;;4770044;30;20242;-80
2023/03/15 07:08:47;;;;;;;12.27;5.40;;;4.40;99.90;;;;;;4759265;30;20313;-81
2023/03/15 07:11:14;;;;;;;13.33;5.27;;;4.70;99.90;;;;;;4773734;30;20286;-83
2023/03/15 07:13:42;;;;;;;12.27;4.80;;;4.60;99.90;;;;;;4787938;30;20216;-80
2023/03/15 07:16:09;;;;;;;11.33;5.13;;;4.50;99.90;;;;;;4788025;30;20700;-81
2023/03/15 07:18:36;;;;;;;14.57;5.87;;;4.60;99.90;;;;;;4789302;30;20561;-80
2023/03/15 07:21:04;;;;;;;10.60;5.10;;;4.40;99.90;;;;;;4773182;30;20222;-78
2023/03/15 07:23:31;;;;;;;12.73;5.10;;;4.20;99.90;;;;;;4789130;30;20214;-80
2023/03/15 07:25:58;;;;;;;14.37;5.67;;;4.10;99.90;;;;;;4789230;30;20558;-80
2023/03/15 07:28:26;;;;;;;10.53;5.20;;;4.30;99.90;;;;;;4788722;30;20202;-79
2023/03/15 07:30:58;;;;;;;10.57;5.30;;;4.30;99.90;;;;;;4789049;29;20317;-80
2023/03/15 07:33:26;;;;;;;13.00;6.27;;;4.30;99.90;;;;;;4772804;30;20229;-79
2023/03/15 07:35:54;;;;;;;13.20;6.27;;;4.30;99.90;;;;;;4787569;30;20210;-79
2023/03/15 07:38:22;;;;;;;11.47;5.87;;;4.20;99.90;;;;;;4787808;30;20566;-80
2023/03/15 07:40:49;;;;;;;10.30;5.63;;;4.20;99.90;;;;;;4772545;30;20204;-80
2023/03/15 07:43:16;;;;;;;10.97;5.77;;;4.20;99.90;;;;;;4788762;30;20233;-80
2023/03/15 07:45:43;;;;;;;12.47;6.03;;;4.30;99.90;;;;;;4772566;30;20229;-80
2023/03/15 07:48:10;;;;;;;9.07;5.43;;;4.30;99.90;;;;;;4788712;30;20206;-79
2023/03/15 07:50:37;;;;;;;10.03;5.77;;;4.30;99.90;;;;;;4772565;30;20208;-82
2023/03/15 07:53:05;;;;;;;11.27;5.63;;;4.10;99.90;;;;;;4787310;30;20666;-79
2023/03/15 07:55:33;;;;;;;14.47;5.93;;;4.20;99.90;;;;;;4772808;30;20214;-78
2023/03/15 07:58:00;;;;;;;14.57;5.63;;;4.20;99.90;;;;;;4772305;30;20228;-80
2023/03/15 08:00:28;;;;;;;10.93;5.40;;;4.30;99.90;;;;;;4772718;30;20212;-79
2023/03/15 08:02:55;;;;;;;8.63;4.57;;;4.30;99.90;;;;;;4788486;30;20207;-78
2023/03/15 08:05:23;;;;;;;10.63;4.90;;;4.30;99.90;;;;;;4772271;30;20252;-81
2023/03/15 08:07:51;;;;;;;9.00;4.43;;;4.30;99.90;;;;;;4787328;30;20212;-78
2023/03/15 08:10:19;;;;;;;8.97;4.67;;;4.30;99.90;;;;;;4771856;30;20694;-77
2023/03/15 08:12:46;;;;;;;13.93;4.60;;;4.40;99.90;;;;;;4771980;30;20225;-75
2023/03/15 08:15:14;;;;;;;12.57;4.50;;;4.60;99.90;;;;;;4787794;30;20280;-78
2023/03/15 08:17:41;;;;;;;13.30;4.30;;;4.50;99.90;;;;;;4772041;30;20292;-77
2023/03/15 08:20:16;;;;;;;10.93;4.57;;;4.60;99.90;;;;;;4786841;30;20688;-77
2023/03/15 08:22:45;;;;;;;11.17;4.10;;;4.50;99.90;;;;;;4787020;30;20206;-77
2023/03/15 08:25:15;;;;;;;12.83;5.10;;;4.70;99.90;;;;;;4771743;30;20231;-76
2023/03/15 08:27:42;;;;;;;9.20;4.07;;;4.80;99.90;;;;;;4786490;30;20225;-76
2023/03/15 08:30:14;;;;;;;9.67;4.03;;;4.40;99.90;;;;;;4786885;30;20209;-76
2023/03/15 08:32:43;;;;;;;9.57;4.07;;;4.40;99.90;;;;;;4786725;30;20213;-79
2023/03/15 08:35:12;;;;;;;11.93;3.90;;;4.50;99.90;;;;;;4788149;30;20190;-79
2023/03/15 08:37:45;;;;;;;11.27;3.90;;;4.40;99.90;;;;;;4786648;30;20236;-79
2023/03/15 08:40:14;;;;;;;9.90;4.27;;;4.50;99.90;;;;;;4786275;30;20215;-76
2023/03/15 08:42:41;;;;;;;7.73;4.00;;;4.50;99.90;;;;;;4784927;29;20209;-78
2023/03/15 08:45:09;;;;;;;10.57;3.93;;;4.60;99.90;;;;;;4785343;30;20301;-76
2023/03/15 08:47:37;;;;;;;10.27;3.93;;;4.50;99.90;;;;;;4787588;30;20197;-75
2023/03/15 08:50:15;;;;;;;10.27;3.87;;;4.90;99.90;;;;;;4787496;30;20284;-76
2023/03/15 08:52:42;;;;;;;8.17;3.67;;;4.60;99.90;;;;;;4753460;30;20223;-78
2023/03/15 08:55:13;;;;;;;10.37;3.83;;;4.70;99.90;;;;;;4753917;30;20211;-77
2023/03/15 08:57:41;;;;;;;10.07;4.43;;;4.60;99.90;;;;;;4753078;30;20245;-77
2023/03/15 09:00:21;;;;;;;10.30;4.07;;;5.10;99.90;;;;;;4764320;30;20212;-77
2023/03/15 09:02:51;;;;;;;8.23;3.93;;;5.20;99.90;;;;;;4756288;30;20272;-77
2023/03/15 09:05:20;;;;;;;13.10;3.87;;;5.30;99.90;;;;;;4786799;30;20210;-78
2023/03/15 09:07:47;;;;;;;12.13;3.50;;;5.10;99.90;;;;;;4787556;30;20313;-76
2023/03/15 09:10:16;;;;;;;9.30;3.60;;;5.10;99.90;;;;;;4771078;30;20780;-87
2023/03/15 09:12:46;;;;;;;8.63;3.67;;;5.20;99.90;;;;;;4772009;30;20225;-81
2023/03/15 09:15:13;;;;;;;11.13;3.93;;;5.40;99.90;;;;;;4771271;30;20226;-80
2023/03/15 09:17:40;;;;;;;10.53;4.00;;;5.20;99.90;;;;;;4787100;29;20203;-84
2023/03/15 09:20:17;;;;;;;7.37;3.77;;;5.20;99.90;;;;;;4771570;30;20222;-86
2023/03/15 09:22:56;;;;;;;8.73;3.63;;;5.50;99.90;;;;;;4771172;30;20253;-82
2023/03/15 09:25:24;;;;;;;9.70;4.00;;;6.20;99.90;;;;;;4785781;30;20313;-85
2023/03/15 09:27:52;;;;;;;14.10;4.00;;;6.50;99.90;;;;;;4785624;30;20211;-80
2023/03/15 09:30:19;;;;;;;11.23;3.57;;;6.60;99.90;;;;;;4770800;30;20205;-79
2023/03/15 09:32:46;;;;;;;8.27;3.37;;;6.80;99.90;;;;;;4786827;30;20234;-81
2023/03/15 09:35:16;;;;;;;9.60;3.43;;;6.30;99.90;;;;;;4786815;30;20207;-81
2023/03/15 09:37:43;;;;;;;7.77;3.23;;;6.50;99.90;;;;;;4787027;30;20742;-82
2023/03/15 09:40:15;;;;;;;10.17;3.30;;;6.90;99.90;;;;;;4786868;30;20231;-86
2023/03/15 09:43:05;;;;;;;6.40;3.40;;;7.00;99.90;;;;;;4771574;30;20199;-78
2023/03/15 09:45:57;;;;;;;7.67;3.63;;;7.10;99.90;;;;;;4786071;30;20203;-87
2023/03/15 09:48:42;;;;;;;9.70;4.00;;;7.00;99.90;;;;;;4771795;30;20226;-82
2023/03/15 09:51:16;;;;;;;9.63;3.57;;;7.30;99.90;;;;;;4788458;30;20545;-88
2023/03/15 09:53:55;;;;;;;9.00;3.90;;;7.30;99.90;;;;;;4799129;30;20584;-86
2023/03/15 09:56:29;;;;;;;9.93;3.87;;;7.10;99.90;;;;;;4801444;30;20212;-88
2023/03/15 09:59:01;;;;;;;9.30;3.70;;;7.30;99.90;;;;;;4796066;30;20254;-88
2023/03/15 10:01:31;;;;;;;7.50;3.53;;;7.40;99.90;;;;;;4800700;30;20242;-83
2023/03/15 10:04:06;;;;;;;8.13;3.60;;;7.30;99.90;;;;;;4784765;30;20751;-83
2023/03/15 10:07:38;;;;;;;10.60;3.63;;;7.40;99.90;;;;;;4780571;30;20334;-86
2023/03/15 10:09:44;;;;;;;9.37;3.40;;;7.90;99.90;;;;;;4776906;29;20237;-89
2023/03/15 10:12:12;;;;;;;8.13;3.67;;;7.90;99.90;;;;;;4771468;30;20215;-85
2023/03/15 10:15:00;;;;;;;8.03;3.13;;;7.50;99.90;;;;;;4770886;30;20208;-89
2023/03/15 10:17:46;;;;;;;9.63;3.63;;;7.70;99.90;;;;;;4787294;30;20209;-82
2023/03/15 10:20:22;;;;;;;7.57;3.70;;;7.80;99.90;;;;;;4770620;30;20215;-78
2023/03/15 10:23:05;;;;;;;6.83;3.37;;;7.80;99.90;;;;;;4770463;30;20283;-83
2023/03/15 10:25:36;;;;;;;9.83;3.53;;;7.00;99.90;;;;;;4785393;30;20203;-89
2023/03/15 10:28:15;;;;;;;10.33;4.63;;;6.90;99.90;;;;;;4787129;30;20224;-82
2023/03/15 10:30:50;;;;;;;8.70;3.53;;;7.70;99.90;;;;;;4770340;30;20239;-84
2023/03/15 10:33:37;;;;;;;8.80;3.53;;;7.80;99.90;;;;;;4787267;30;20216;-86
2023/03/15 10:36:17;;;;;;;7.20;3.67;;;8.00;99.90;;;;;;4770504;30;20208;-84
2023/03/15 10:38:45;;;;;;;7.73;3.50;;;8.20;99.90;;;;;;4770377;30;20286;-84
2023/03/15 10:41:25;;;;;;;7.90;3.53;;;8.00;99.90;;;;;;4786971;30;20556;-82
2023/03/15 10:43:59;;;;;;;9.97;3.60;;;8.10;99.90;;;;;;4787447;30;20283;-83
2023/03/15 10:46:26;;;;;;;8.60;3.60;;;8.50;99.90;;;;;;4787256;30;20224;-83
2023/03/15 10:48:59;;;;;;;7.97;3.47;;;9.00;99.90;;;;;;4785290;30;20200;-84
2023/03/15 10:51:30;;;;;;;10.90;3.60;;;9.80;99.90;;;;;;4790534;30;20224;-83
2023/03/15 10:54:12;;;;;;;8.87;3.70;;;9.50;99.90;;;;;;4786864;30;20206;-85
2023/03/15 10:56:58;;;;;;;8.17;3.40;;;9.60;99.90;;;;;;4770365;30;20635;-85
2023/03/15 10:59:27;;;;;;;9.97;3.50;;;9.90;99.90;;;;;;4770774;30;20530;-88
2023/03/15 11:02:15;;;;;;;9.13;4.27;;;9.70;99.90;;;;;;4786750;30;20219;-88
2023/03/15 11:04:47;;;;;;;8.73;3.47;;;9.40;99.90;;;;;;4785638;30;20205;-90
2023/03/15 11:07:13;;;;;;;7.63;3.70;;;9.20;99.90;;;;;;4771983;30;20236;-91
2023/03/15 11:09:57;;;;;;;6.93;3.30;;;8.80;99.90;;;;;;4791508;29;20285;-91
2023/03/15 11:12:28;;;;;;;9.03;3.50;;;8.70;99.90;;;;;;4779405;30;20216;-90
2023/03/15 11:14:59;;;;;;;7.10;3.70;;;8.50;99.90;;;;;;4777551;30;20710;-91
2023/03/15 11:17:30;;;;;;;9.70;3.80;;;8.60;99.90;;;;;;4791353;30;20208;-90
2023/03/15 11:20:11;;;;;;;9.30;3.20;;;8.60;99.90;;;;;;4799890;30;20185;-90
2023/03/15 11:22:39;;;;;;;11.27;3.30;;;8.80;99.90;;;;;;4789037;30;20731;-83
2023/03/15 11:25:17;;;;;;;8.97;3.50;;;8.40;99.90;;;;;;4792470;30;20207;-87
2023/03/15 11:27:52;;;;;;;9.67;3.47;;;8.30;99.90;;;;;;4789968;30;20588;-87
2023/03/15 11:30:25;;;;;;;11.57;3.77;;;8.30;99.90;;;;;;4774324;30;20221;-84
2023/03/15 11:32:53;;;;;;;7.17;3.03;;;8.50;99.90;;;;;;4774188;30;20690;-80
2023/03/15 11:35:37;;;;;;;9.77;3.20;;;8.80;99.90;;;;;;4774252;30;20600;-93
2023/03/15 11:38:47;;;;;;;8.37;3.10;;;8.90;99.90;;;;;;4778307;30;20298;-80
2023/03/15 11:41:35;;;;;;;12.23;3.40;;;8.80;99.90;;;;;;4734911;30;20210;-80
2023/03/15 11:44:05;;;;;;;8.90;3.13;;;8.60;99.90;;;;;;4739890;30;20209;-82
2023/03/15 11:47:02;;;;;;;9.30;3.23;;;8.70;99.90;;;;;;4720078;30;20229;-89
2023/03/15 11:49:36;;;;;;;10.73;3.03;;;8.90;99.90;;;;;;4709570;30;20222;-92
2023/03/15 11:52:04;;;;;;;7.07;3.10;;;8.60;99.90;;;;;;4720208;30;20220;-83
2023/03/15 11:54:34;;;;;;;11.40;3.00;;;8.40;99.90;;;;;;4720394;30;20806;-90
2023/03/15 11:57:05;;;;;;;7.47;2.97;;;8.70;99.90;;;;;;4736428;30;20606;-84
2023/03/15 11:59:39;;;;;;;7.83;2.80;;;9.10;99.90;;;;;;4733152;30;20243;-80
2023/03/15 12:02:08;;;;;;;7.87;2.63;;;9.70;99.90;;;;;;4733994;30;20741;-84
2023/03/15 12:05:07;;;;;;;6.87;2.77;;;9.10;99.90;;;;;;4733698;30;20233;-87
2023/03/15 12:08:50;;;;;;;5.57;2.70;;;8.70;99.90;;;;;;4748966;24;20234;-88
2023/03/15 12:11:43;;;;;;;9.80;2.93;;;8.70;99.90;;;;;;4753419;24;20251;-87
2023/03/15 12:14:39;;;;;;;7.70;2.50;;;9.10;99.90;;;;;;4787890;30;20208;-82
2023/03/15 12:17:27;;;;;;;7.20;3.00;;;9.50;99.90;;;;;;4789803;29;20307;-89
2023/03/15 12:20:10;;;;;;;8.33;2.83;;;9.30;99.90;;;;;;4772718;30;20213;-88
2023/03/15 12:22:51;;;;;;;7.83;2.70;;;9.20;99.90;;;;;;4788097;30;20215;-90
2023/03/15 12:25:35;;;;;;;6.43;2.53;;;8.50;99.90;;;;;;4787867;30;20204;-84
2023/03/15 12:28:52;;;;;;;7.13;2.70;;;8.10;99.90;;;;;;4787262;30;20296;-87
2023/03/15 12:32:12;;;;;;;6.63;2.70;;;7.80;99.90;;;;;;4805825;24;20863;-87
2023/03/15 12:34:57;;;;;;;10.20;3.20;;;7.70;99.90;;;;;;4703037;30;20228;-83
2023/03/15 12:37:37;;;;;;;7.93;2.60;;;7.30;99.90;;;;;;4716590;30;20244;-82
2023/03/15 12:40:21;;;;;;;8.53;2.90;;;7.50;99.90;;;;;;4732431;30;20240;-91
2023/03/15 12:42:56;;;;;;;8.00;3.17;;;7.20;99.90;;;;;;4718679;30;20220;-86
2023/03/15 12:45:34;;;;;;;7.23;2.50;;;7.40;99.90;;;;;;4717013;30;20243;-84
2023/03/15 12:48:11;;;;;;;6.90;3.00;;;7.60;99.90;;;;;;4715453;30;20229;-82
2023/03/15 12:50:44;;;;;;;6.67;3.00;;;7.70;99.90;;;;;;4718273;30;20859;-86
2023/03/15 12:53:29;;;;;;;7.77;2.97;;;7.50;99.90;;;;;;4701296;30;20215;-86
2023/03/15 13:01:28;;;;;;;7.10;2.47;;;7.10;99.90;;;;;;5379657;24;20238;-80
2023/03/15 13:03:57;;;;;;;6.57;3.20;;;7.10;99.90;;;;;;4796316;29;20204;-75
2023/03/15 13:06:36;;;;;;;8.87;3.10;;;7.30;99.90;;;;;;4792967;29;20301;-72
2023/03/15 13:09:40;;;;;;;10.10;3.23;;;7.10;99.90;;;;;;4795846;29;20238;-81
2023/03/15 13:12:22;;;;;;;9.47;3.40;;;7.20;99.90;;;;;;4792038;29;20204;-79
2023/03/15 13:15:23;;;;;;;9.43;3.33;;;6.90;99.90;;;;;;4791542;29;20210;-84
2023/03/15 13:18:02;;;;;;;9.50;3.27;;;7.00;99.90;;;;;;4786726;29;20238;-77
2023/03/15 13:20:47;;;;;;;7.27;3.20;;;6.70;99.90;;;;;;4786256;29;20210;-84
2023/03/15 13:23:28;;;;;;;7.00;3.10;;;6.60;99.90;;;;;;4797863;29;20568;-77
2023/03/15 13:26:18;;;;;;;9.33;3.30;;;6.60;99.90;;;;;;4813892;29;21344;-82
2023/03/15 13:29:14;;;;;;;10.20;3.00;;;6.80;99.90;;;;;;4807333;29;20342;-78
2023/03/15 13:31:41;;;;;;;12.10;2.97;;;6.80;99.90;;;;;;4797822;29;20214;-78
2023/03/15 13:34:19;;;;;;;10.47;3.00;;;6.90;99.90;;;;;;4778740;29;20290;-88
2023/03/15 13:36:57;;;;;;;9.27;3.30;;;7.40;99.90;;;;;;4801648;29;20244;-87
2023/03/15 13:39:32;;;;;;;9.23;3.53;;;7.20;99.90;;;;;;4784126;29;20222;-89
2023/03/15 13:42:05;;;;;;;8.27;3.13;;;7.00;99.90;;;;;;4777834;29;20210;-88
2023/03/15 13:44:32;;;;;;;8.73;3.10;;;6.70;99.90;;;;;;4793225;29;20211;-76